createdAt,value
2019-03-26T00:00:20.233Z,16.62
2019-03-26T00:02:48.576Z,16.05
2019-03-26T00:05:16.894Z,13.67
2019-03-26T00:07:45.297Z,18.20
2019-03-26T00:10:13.709Z,18.40
2019-03-26T00:12:43.177Z,14.28
2019-03-26T00:15:11.690Z,14.43
2019-03-26T00:17:40.095Z,16.10
2019-03-26T00:20:08.699Z,14.13
2019-03-26T00:22:37.192Z,18.55
2019-03-26T00:25:05.746Z,17.27
2019-03-26T00:27:34.095Z,14.83
2019-03-26T00:30:02.482Z,16.23
2019-03-26T00:32:30.907Z,15.88
2019-03-26T00:34:59.202Z,19.67
2019-03-26T00:37:27.511Z,16.62
2019-03-26T00:39:55.862Z,15.95
2019-03-26T00:42:24.268Z,14.07
2019-03-26T00:44:52.699Z,14.07
2019-03-26T00:47:21.220Z,15.53
2019-03-26T00:49:49.702Z,11.83
2019-03-26T00:52:18.175Z,13.00
2019-03-26T00:54:46.511Z,14.20
2019-03-26T00:57:14.805Z,9.03
2019-03-26T00:59:43.187Z,9.40
2019-03-26T01:02:11.596Z,13.90
2019-03-26T01:04:39.855Z,10.72
2019-03-26T01:07:08.251Z,14.87
2019-03-26T01:09:36.615Z,14.10
2019-03-26T01:12:05.078Z,16.50
2019-03-26T01:14:33.420Z,16.57
2019-03-26T01:17:01.842Z,15.13
2019-03-26T01:19:30.259Z,16.40
2019-03-26T01:21:58.650Z,14.68
2019-03-26T01:24:29.301Z,13.70
2019-03-26T01:26:57.734Z,18.35
2019-03-26T01:29:26.597Z,16.17
2019-03-26T01:31:55.128Z,13.55
2019-03-26T01:34:23.538Z,14.10
2019-03-26T01:36:51.869Z,14.23
2019-03-26T01:39:20.268Z,11.33
2019-03-26T01:41:48.627Z,12.68
2019-03-26T01:44:17.035Z,11.75
2019-03-26T01:46:45.520Z,11.25
2019-03-26T01:49:13.942Z,10.08
2019-03-26T01:51:42.282Z,12.63
2019-03-26T01:54:10.633Z,8.93
2019-03-26T01:56:38.900Z,11.15
2019-03-26T01:59:07.202Z,10.72
2019-03-26T02:01:35.471Z,13.45
2019-03-26T02:04:03.817Z,12.63
2019-03-26T02:06:32.182Z,12.10
2019-03-26T02:09:00.714Z,12.53
2019-03-26T02:11:29.090Z,13.70
2019-03-26T02:13:57.523Z,13.58
2019-03-26T02:16:25.983Z,11.00
2019-03-26T02:18:54.347Z,11.35
2019-03-26T02:21:22.733Z,11.68
2019-03-26T02:23:51.170Z,11.63
2019-03-26T02:26:19.551Z,15.00
2019-03-26T02:28:47.970Z,12.55
2019-03-26T02:31:16.585Z,11.18
2019-03-26T02:33:45.038Z,11.95
2019-03-26T02:36:13.329Z,10.15
2019-03-26T02:38:41.724Z,15.50
2019-03-26T02:41:09.985Z,16.35
2019-03-26T02:43:38.258Z,14.40
2019-03-26T02:46:06.642Z,13.98
2019-03-26T02:48:35.089Z,11.20
2019-03-26T02:51:03.493Z,12.13
2019-03-26T02:53:31.882Z,13.70
2019-03-26T02:56:00.259Z,15.03
2019-03-26T02:58:28.603Z,13.88
2019-03-26T03:00:57.055Z,11.88
2019-03-26T03:03:25.472Z,18.00
2019-03-26T03:05:55.943Z,10.75
2019-03-26T03:08:24.214Z,13.13
2019-03-26T03:10:52.631Z,16.15
2019-03-26T03:13:20.928Z,14.93
2019-03-26T03:15:49.220Z,15.50
2019-03-26T03:18:17.561Z,14.73
2019-03-26T03:20:46.009Z,11.35
2019-03-26T03:23:14.419Z,13.72
2019-03-26T03:25:42.817Z,17.02
2019-03-26T03:28:11.104Z,17.30
2019-03-26T03:30:42.621Z,12.68
2019-03-26T03:33:10.985Z,13.83
2019-03-26T03:35:51.858Z,18.95
2019-03-26T03:38:09.457Z,19.05
2019-03-26T03:40:37.787Z,16.35
2019-03-26T03:43:06.116Z,14.13
2019-03-26T03:45:34.571Z,19.35
2019-03-26T03:48:03.374Z,15.60
2019-03-26T03:50:32.667Z,13.13
2019-03-26T03:53:01.558Z,15.08
2019-03-26T03:55:33.703Z,14.40
2019-03-26T03:58:02.269Z,17.67
2019-03-26T04:00:38.366Z,10.85
2019-03-26T04:03:11.673Z,18.73
2019-03-26T04:05:39.957Z,16.40
2019-03-26T04:08:08.360Z,17.30
2019-03-26T04:10:36.811Z,16.75
2019-03-26T04:13:05.098Z,12.30
2019-03-26T04:15:35.110Z,16.20
2019-03-26T04:18:03.346Z,15.23
2019-03-26T04:20:31.633Z,14.80
2019-03-26T04:22:59.881Z,14.43
2019-03-26T04:25:28.149Z,16.70
2019-03-26T04:27:56.719Z,14.75
2019-03-26T04:30:28.534Z,14.00
2019-03-26T04:32:56.815Z,13.67
2019-03-26T04:35:25.030Z,16.23
2019-03-26T04:37:53.289Z,14.73
2019-03-26T04:40:21.662Z,17.03
2019-03-26T04:42:49.961Z,15.98
2019-03-26T04:45:18.262Z,10.53
2019-03-26T04:47:48.930Z,14.43
2019-03-26T04:50:17.237Z,17.42
2019-03-26T04:52:45.474Z,16.48
2019-03-26T04:55:13.845Z,21.20
2019-03-26T04:57:42.119Z,15.90
2019-03-26T05:00:10.512Z,14.98
2019-03-26T05:02:38.751Z,15.28
2019-03-26T05:05:07.217Z,18.67
2019-03-26T05:07:35.446Z,13.13
2019-03-26T05:10:03.761Z,13.72
2019-03-26T05:12:32.029Z,18.92
2019-03-26T05:15:00.609Z,22.52
2019-03-26T05:17:28.953Z,15.80
2019-03-26T05:19:57.221Z,18.82
2019-03-26T05:22:25.496Z,16.82
2019-03-26T05:24:53.767Z,17.98
2019-03-26T05:27:21.989Z,17.05
2019-03-26T05:29:50.252Z,15.20
2019-03-26T05:32:18.545Z,14.63
2019-03-26T05:34:46.876Z,18.80
2019-03-26T05:37:18.403Z,14.20
2019-03-26T05:39:46.838Z,14.98
2019-03-26T05:42:15.150Z,17.65
2019-03-26T05:44:43.438Z,12.98
2019-03-26T05:47:11.716Z,15.88
2019-03-26T05:49:40.894Z,17.80
2019-03-26T05:52:09.220Z,16.12
2019-03-26T05:54:37.535Z,18.65
2019-03-26T05:57:05.805Z,20.12
2019-03-26T05:59:34.064Z,16.45
2019-03-26T06:02:13.484Z,16.97
2019-03-26T06:04:32.530Z,20.12
2019-03-26T06:07:05.217Z,18.52
2019-03-26T06:09:30.902Z,17.23
2019-03-26T06:11:59.374Z,16.27
2019-03-26T06:14:34.665Z,21.70
2019-03-26T06:17:02.967Z,20.60
2019-03-26T06:19:31.285Z,18.50
2019-03-26T06:21:59.555Z,21.52
2019-03-26T06:24:27.815Z,18.37
2019-03-26T06:26:56.131Z,24.82
2019-03-26T06:29:24.526Z,19.82
2019-03-26T06:31:53.940Z,17.27
2019-03-26T06:34:22.271Z,24.63
2019-03-26T06:36:50.993Z,20.08
2019-03-26T06:39:19.399Z,18.82
2019-03-26T06:41:58.961Z,21.20
2019-03-26T06:44:27.273Z,15.90
2019-03-26T06:46:55.696Z,18.50
2019-03-26T06:49:24.133Z,19.92
2019-03-26T06:51:52.512Z,16.40
2019-03-26T06:54:20.906Z,20.27
2019-03-26T06:56:49.257Z,18.42
2019-03-26T06:59:17.749Z,15.72
2019-03-26T07:01:46.143Z,20.68
2019-03-26T07:04:22.975Z,19.50
2019-03-26T07:06:51.395Z,15.60
2019-03-26T07:09:19.690Z,23.38
2019-03-26T07:11:47.990Z,18.65
2019-03-26T07:14:20.407Z,21.10
2019-03-26T07:16:48.934Z,20.23
2019-03-26T07:19:17.360Z,20.12
2019-03-26T07:21:49.754Z,21.33
2019-03-26T07:24:15.658Z,20.30
2019-03-26T07:26:51.273Z,20.62
2019-03-26T07:29:19.557Z,15.13
2019-03-26T07:31:54.190Z,15.55
2019-03-26T07:35:02.294Z,17.57
2019-03-26T07:37:45.146Z,18.42
2019-03-26T07:40:07.978Z,19.42
2019-03-26T07:42:36.342Z,19.40
2019-03-26T07:45:04.922Z,20.37
2019-03-26T07:47:52.706Z,18.07
2019-03-26T07:50:27.196Z,21.15
2019-03-26T07:53:01.279Z,19.32
2019-03-26T07:55:50.146Z,19.45
2019-03-26T07:58:08.328Z,18.92
2019-03-26T08:00:39.786Z,23.75
2019-03-26T08:03:21.105Z,18.62
2019-03-26T08:05:56.874Z,19.82
2019-03-26T08:08:25.210Z,18.70
2019-03-26T08:10:53.681Z,19.75
2019-03-26T08:13:22.022Z,21.97
2019-03-26T08:15:57.739Z,20.97
2019-03-26T08:18:26.140Z,15.00
2019-03-26T08:20:57.346Z,12.80
2019-03-26T08:23:24.506Z,18.95
2019-03-26T08:25:52.784Z,19.20
2019-03-26T08:28:21.118Z,23.05
2019-03-26T08:30:50.276Z,17.62
2019-03-26T08:33:18.766Z,11.40
2019-03-26T08:35:47.104Z,19.27
2019-03-26T08:38:15.486Z,16.70
2019-03-26T08:40:43.876Z,15.58
2019-03-26T08:43:12.293Z,15.83
2019-03-26T08:45:40.716Z,15.00
2019-03-26T08:48:09.160Z,17.80
2019-03-26T08:50:37.542Z,12.40
2019-03-26T08:53:05.962Z,16.37
2019-03-26T08:55:34.461Z,14.38
2019-03-26T08:58:02.932Z,14.07
2019-03-26T09:00:32.191Z,13.80
2019-03-26T09:03:00.785Z,22.70
2019-03-26T09:05:29.129Z,15.55
2019-03-26T09:07:57.529Z,14.90
2019-03-26T09:10:25.799Z,14.98
2019-03-26T09:12:54.210Z,17.77
2019-03-26T09:15:22.566Z,13.77
2019-03-26T09:17:50.933Z,12.90
2019-03-26T09:20:19.321Z,16.82
2019-03-26T09:22:47.669Z,12.55
2019-03-26T09:25:16.094Z,17.27
2019-03-26T09:27:44.409Z,13.18
2019-03-26T09:30:13.635Z,14.30
2019-03-26T09:32:42.965Z,10.28
2019-03-26T09:35:13.991Z,11.55
2019-03-26T09:37:42.411Z,9.93
2019-03-26T09:40:11.041Z,11.80
2019-03-26T09:42:39.534Z,10.72
2019-03-26T09:45:08.982Z,8.35
2019-03-26T09:47:37.271Z,12.75
2019-03-26T09:50:07.192Z,12.72
2019-03-26T09:52:35.488Z,10.58
2019-03-26T09:55:03.929Z,6.28
2019-03-26T09:57:32.194Z,9.45
2019-03-26T10:00:01.269Z,9.43
2019-03-26T10:03:20.266Z,13.00
2019-03-26T10:05:36.416Z,17.20
2019-03-26T10:08:04.788Z,12.85
2019-03-26T10:10:33.233Z,19.42
2019-03-26T10:13:04.543Z,13.88
2019-03-26T10:15:32.864Z,17.37
2019-03-26T10:18:01.197Z,16.05
2019-03-26T10:20:29.626Z,13.38
2019-03-26T10:23:00.882Z,14.90
2019-03-26T10:25:39.643Z,17.07
2019-03-26T10:28:08.116Z,13.45
2019-03-26T10:30:37.624Z,16.25
2019-03-26T10:33:09.152Z,13.72
2019-03-26T10:36:01.626Z,17.00
2019-03-26T10:38:29.942Z,14.53
2019-03-26T10:41:18.801Z,14.33
2019-03-26T10:43:47.366Z,16.35
2019-03-26T10:46:15.787Z,10.98
2019-03-26T10:48:49.624Z,15.20
2019-03-26T10:51:18.143Z,14.30
2019-03-26T10:53:46.540Z,14.98
2019-03-26T10:56:15.084Z,16.20
2019-03-26T10:58:43.489Z,12.75
2019-03-26T11:01:12.004Z,16.23
2019-03-26T11:03:40.550Z,15.55
2019-03-26T11:06:08.999Z,15.65
2019-03-26T11:09:20.083Z,15.88
2019-03-26T11:11:36.479Z,14.43
2019-03-26T11:14:07.035Z,14.25
2019-03-26T11:16:45.619Z,13.20
2019-03-26T11:19:05.586Z,11.48
2019-03-26T11:21:34.309Z,15.03
2019-03-26T11:24:08.875Z,14.60
2019-03-26T11:26:37.315Z,14.00
2019-03-26T11:29:31.488Z,12.93
2019-03-26T11:35:13.894Z,11.88
2019-03-26T11:37:42.468Z,14.33
2019-03-26T11:40:13.454Z,8.58
2019-03-26T11:42:42.051Z,10.25
2019-03-26T11:45:36.755Z,9.38
2019-03-26T11:48:15.824Z,10.82
2019-03-26T11:50:44.310Z,13.35
2019-03-26T11:53:13.124Z,14.85
2019-03-26T12:01:37.044Z,17.10
2019-03-26T12:04:32.489Z,14.63
2019-03-26T12:10:09.381Z,17.82
2019-03-26T12:12:40.435Z,14.55
2019-03-26T12:15:26.215Z,15.75
2019-03-26T12:18:15.489Z,13.53
2019-03-26T12:20:44.020Z,12.58
2019-03-26T12:23:26.763Z,13.70
2019-03-26T12:26:23.375Z,14.83
2019-03-26T12:28:51.586Z,10.95
2019-03-26T12:31:20.149Z,10.80
2019-03-26T12:34:19.991Z,14.03
2019-03-26T12:36:40.135Z,17.90
2019-03-26T12:39:18.244Z,12.65
2019-03-26T12:41:46.752Z,17.37
2019-03-26T12:44:22.545Z,18.57
2019-03-26T12:46:58.478Z,15.58
2019-03-26T12:49:36.149Z,12.98
2019-03-26T12:52:23.202Z,14.73
2019-03-26T12:55:15.119Z,19.62
2019-03-26T13:03:46.773Z,18.02
2019-03-26T13:06:28.689Z,20.20
2019-03-26T13:08:49.862Z,16.67
2019-03-26T13:11:18.425Z,15.10
2019-03-26T13:13:46.893Z,13.15
2019-03-26T13:16:15.729Z,12.68
2019-03-26T13:18:44.099Z,12.00
2019-03-26T13:21:18.877Z,17.15
2019-03-26T13:23:47.239Z,14.30
2019-03-26T13:26:32.244Z,16.17
2019-03-26T13:29:15.962Z,11.83
2019-03-26T13:31:44.410Z,17.62
2019-03-26T13:34:38.866Z,13.00
2019-03-26T13:37:17.600Z,17.42
2019-03-26T13:39:37.374Z,17.73
2019-03-26T13:42:30.885Z,15.88
2019-03-26T13:47:43.874Z,20.10
2019-03-26T13:50:29.613Z,13.28
2019-03-26T13:53:02.799Z,17.73
2019-03-26T13:55:42.267Z,19.55
2019-03-26T13:58:10.940Z,16.93
2019-03-26T14:00:44.695Z,20.37
2019-03-26T14:03:31.838Z,16.10
2019-03-26T14:06:19.160Z,17.02
2019-03-26T14:08:50.358Z,18.32
2019-03-26T14:11:20.669Z,19.15
2019-03-26T14:13:48.992Z,20.62
2019-03-26T14:16:17.955Z,20.23
2019-03-26T14:18:46.299Z,19.48
2019-03-26T14:21:24.571Z,21.93
2019-03-26T14:23:52.921Z,16.02
2019-03-26T14:26:29.356Z,21.70
2019-03-26T14:29:08.072Z,18.60
2019-03-26T14:31:36.453Z,15.18
2019-03-26T14:34:13.610Z,19.23
2019-03-26T14:36:41.955Z,14.95
2019-03-26T14:39:32.051Z,12.78
2019-03-26T14:42:01.350Z,17.55
2019-03-26T14:44:36.756Z,14.33
2019-03-26T14:47:10.918Z,15.00
2019-03-26T14:49:39.166Z,13.58
2019-03-26T14:52:13.392Z,18.57
2019-03-26T14:54:41.698Z,16.75
2019-03-26T14:57:33.515Z,15.90
2019-03-26T15:00:05.697Z,15.60
2019-03-26T15:03:01.825Z,17.87
2019-03-26T15:05:17.582Z,15.25
2019-03-26T15:07:52.238Z,18.90
2019-03-26T15:11:13.848Z,16.67
2019-03-26T15:13:44.301Z,14.63
2019-03-26T15:16:12.665Z,15.08
2019-03-26T15:18:41.021Z,10.98
2019-03-26T15:21:09.562Z,17.35
2019-03-26T15:23:38.084Z,14.15
2019-03-26T15:26:06.737Z,15.95
2019-03-26T15:28:35.307Z,14.18
2019-03-26T15:31:06.233Z,14.85
2019-03-26T15:33:34.793Z,16.27
2019-03-26T15:36:04.396Z,16.07
2019-03-26T15:38:37.452Z,16.77
2019-03-26T15:44:03.188Z,21.97
2019-03-26T15:46:31.654Z,16.75
2019-03-26T15:49:00.478Z,13.62
2019-03-26T15:51:28.883Z,15.28
2019-03-26T15:53:57.422Z,16.37
2019-03-26T15:56:28.095Z,14.45
2019-03-26T15:58:56.538Z,12.73
2019-03-26T16:01:24.930Z,17.82
2019-03-26T16:03:53.324Z,13.18
2019-03-26T16:06:21.650Z,9.85
2019-03-26T16:08:49.981Z,12.73
2019-03-26T16:11:19.610Z,19.12
2019-03-26T16:13:48.591Z,18.10
2019-03-26T16:16:18.131Z,16.80
2019-03-26T16:18:46.570Z,12.40
2019-03-26T16:21:14.951Z,15.23
2019-03-26T16:23:43.263Z,16.90
2019-03-26T16:26:11.678Z,14.43
2019-03-26T16:29:02.108Z,15.53
2019-03-26T16:31:28.731Z,18.35
2019-03-26T16:33:57.163Z,14.83
2019-03-26T16:36:25.694Z,10.65
2019-03-26T16:38:55.635Z,11.20
2019-03-26T16:41:24.011Z,10.75
2019-03-26T16:43:52.480Z,11.20
2019-03-26T16:46:20.873Z,11.30
2019-03-26T16:48:49.346Z,13.00
2019-03-26T16:51:17.800Z,10.40
2019-03-26T16:53:46.225Z,13.53
2019-03-26T16:56:14.607Z,17.37
2019-03-26T16:58:42.951Z,10.93
2019-03-26T17:01:11.533Z,19.17
2019-03-26T17:03:39.957Z,16.15
2019-03-26T17:06:08.438Z,14.28
2019-03-26T17:08:36.836Z,13.68
2019-03-26T17:11:05.378Z,12.53
2019-03-26T17:13:33.833Z,14.60
2019-03-26T17:16:05.478Z,22.65
2019-03-26T17:18:32.302Z,18.23
2019-03-26T17:21:00.723Z,22.95
2019-03-26T17:23:29.011Z,15.98
2019-03-26T17:25:57.378Z,15.63
2019-03-26T17:28:25.740Z,15.10
2019-03-26T17:30:54.051Z,11.15
2019-03-26T17:33:22.531Z,10.98
2019-03-26T17:36:04.886Z,13.05
2019-03-26T17:38:36.128Z,12.43
2019-03-26T17:41:04.622Z,11.80
2019-03-26T17:43:33.059Z,13.55
2019-03-26T17:46:03.673Z,15.03
2019-03-26T17:48:34.456Z,14.30
2019-03-26T17:51:02.816Z,14.87
2019-03-26T17:56:47.324Z,14.03
2019-03-26T18:06:02.815Z,15.88
2019-03-26T18:12:02.048Z,10.93
2019-03-26T18:14:30.641Z,15.73
2019-03-26T18:16:59.122Z,15.10
2019-03-26T18:19:28.753Z,15.20
2019-03-26T18:21:57.224Z,14.10
2019-03-26T18:24:38.296Z,13.15
2019-03-26T18:29:35.788Z,14.53
2019-03-26T18:32:11.664Z,12.28
2019-03-26T18:34:44.392Z,15.03
2019-03-26T18:37:30.969Z,18.35
2019-03-26T18:40:50.504Z,13.88
2019-03-26T18:43:18.920Z,15.00
2019-03-26T18:45:47.270Z,15.88
2019-03-26T18:48:15.621Z,18.50
2019-03-26T18:50:43.929Z,21.33
2019-03-26T18:53:12.332Z,19.17
2019-03-26T18:55:40.694Z,17.65
2019-03-26T18:58:09.026Z,17.05
2019-03-26T19:00:37.911Z,19.15
2019-03-26T19:03:06.870Z,20.30
2019-03-26T19:05:35.356Z,20.35
2019-03-26T19:08:03.742Z,23.15
2019-03-26T19:10:32.863Z,15.70
2019-03-26T19:13:03.540Z,16.73
2019-03-26T19:15:32.097Z,17.75
2019-03-26T19:18:05.342Z,15.68
2019-03-26T19:21:03.190Z,15.65
2019-03-26T19:23:31.829Z,13.68
2019-03-26T19:26:00.384Z,19.32
2019-03-26T19:28:28.996Z,16.20
2019-03-26T19:30:57.493Z,18.87
2019-03-26T19:33:25.937Z,12.30
2019-03-26T19:35:54.473Z,14.33
2019-03-26T19:38:23.046Z,15.90
2019-03-26T19:40:51.729Z,14.18
2019-03-26T19:43:20.204Z,15.10
2019-03-26T19:45:48.784Z,15.98
2019-03-26T19:48:17.331Z,15.65
2019-03-26T19:50:45.867Z,17.32
2019-03-26T19:53:14.444Z,13.62
2019-03-26T19:55:42.975Z,14.45
2019-03-26T19:58:11.504Z,15.32
2019-03-26T20:00:40.100Z,14.10
2019-03-26T20:03:08.717Z,16.02
2019-03-26T20:05:37.141Z,19.65
2019-03-26T20:12:18.730Z,18.92
2019-03-26T20:27:19.711Z,19.92
2019-03-26T20:29:48.249Z,21.57
2019-03-26T20:32:16.730Z,22.82
2019-03-26T20:34:45.532Z,20.23
2019-03-26T20:37:14.569Z,22.60
2019-03-26T20:39:43.102Z,18.82
2019-03-26T20:42:11.583Z,23.05
2019-03-26T20:44:40.009Z,25.77
2019-03-26T20:47:08.833Z,22.82
2019-03-26T20:49:37.236Z,19.98
2019-03-26T20:52:07.656Z,20.62
2019-03-26T20:54:36.350Z,23.55
2019-03-26T20:57:21.295Z,24.30
2019-03-26T21:00:07.264Z,18.37
2019-03-26T21:02:31.593Z,26.80
2019-03-26T21:05:00.016Z,21.65
2019-03-26T21:07:28.380Z,24.57
2019-03-26T21:09:56.941Z,24.00
2019-03-26T21:12:25.416Z,21.95
2019-03-26T21:14:53.830Z,21.10
2019-03-26T21:17:22.255Z,22.37
2019-03-26T21:19:50.722Z,25.35
2019-03-26T21:22:22.235Z,25.40
2019-03-26T21:24:50.728Z,24.75
2019-03-26T21:27:19.313Z,22.85
2019-03-26T21:29:47.899Z,23.95
2019-03-26T21:32:16.276Z,27.95
2019-03-26T21:34:44.810Z,28.35
2019-03-26T21:37:13.295Z,21.33
2019-03-26T21:39:41.795Z,26.17
2019-03-26T21:42:12.451Z,24.05
2019-03-26T21:44:41.016Z,25.48
2019-03-26T21:47:09.478Z,25.20
2019-03-26T21:49:37.941Z,26.73
2019-03-26T21:52:06.803Z,24.32
2019-03-26T21:54:35.465Z,25.57
2019-03-26T21:57:04.143Z,24.40
2019-03-26T21:59:37.422Z,23.62
2019-03-26T22:02:06.619Z,25.35
2019-03-26T22:04:35.079Z,25.15
2019-03-26T22:07:03.485Z,24.82
2019-03-26T22:09:31.832Z,24.47
2019-03-26T22:12:00.671Z,23.85
2019-03-26T22:14:29.017Z,26.45
2019-03-26T22:16:57.463Z,22.25
2019-03-26T22:19:28.745Z,22.55
2019-03-26T22:21:56.058Z,23.85
2019-03-26T22:24:24.482Z,30.30
2019-03-26T22:26:52.947Z,28.47
2019-03-26T22:29:21.265Z,24.47
2019-03-26T22:31:49.654Z,26.65
2019-03-26T22:34:17.960Z,24.50
2019-03-26T22:36:46.385Z,28.73
2019-03-26T22:39:14.775Z,28.60
2019-03-26T22:41:43.287Z,26.93
2019-03-26T22:44:11.776Z,26.45
2019-03-26T22:46:56.947Z,30.35
2019-03-26T22:49:30.310Z,28.47
2019-03-26T22:51:58.716Z,28.65
2019-03-26T22:54:27.081Z,28.75
2019-03-26T22:56:55.484Z,26.52
2019-03-26T22:59:23.912Z,28.92
2019-03-26T23:01:55.394Z,26.85
2019-03-26T23:04:23.843Z,27.87
2019-03-26T23:06:52.255Z,27.82
2019-03-26T23:09:28.727Z,23.18
2019-03-26T23:11:53.070Z,25.08
2019-03-26T23:14:21.541Z,25.95
2019-03-26T23:16:50.060Z,24.75
2019-03-26T23:19:18.356Z,23.12
2019-03-26T23:21:46.707Z,25.55
2019-03-26T23:24:15.022Z,24.23
2019-03-26T23:26:43.350Z,29.72
2019-03-26T23:29:11.634Z,23.98
2019-03-26T23:31:39.931Z,27.45
2019-03-26T23:34:08.247Z,26.23
2019-03-26T23:36:36.612Z,26.73
2019-03-26T23:39:05.430Z,25.10
2019-03-26T23:41:33.828Z,28.95
2019-03-26T23:44:02.131Z,26.85
2019-03-26T23:46:30.397Z,34.58
2019-03-26T23:48:58.732Z,28.50
2019-03-26T23:51:27.018Z,31.90
2019-03-26T23:53:57.721Z,26.40
2019-03-26T23:56:26.015Z,35.55
2019-03-26T23:58:54.291Z,30.68
